Terminal Aerodrome Forecast
Issued by NWS

Home | Current Version | Previous Version | Text Only | Print | Product List | Glossary On
Versions: 1 2 3 4 5 6 7 8 9 10 11 12 13 14 15 16
072
FTUS41 KBTV 050531
TAFMSS
TAF
KMSS 050531Z 0506/0606 VRB03KT P6SM OVC050
     FM051200 04007KT P6SM BKN050
     FM051700 04011KT P6SM BKN040
     FM052300 03006KT P6SM SCT050
     FM060200 04004KT P6SM FEW250=

USA.gov is the U.S. government's official web portal to all federal, state and local government web resources and services.